Aérodrome :
LOGIN :

S'inscrire | Disclaimer

   EN    FR    IT 

 










Légende :    VFR   VFR Marginal   IFR   IFR Intensif   IFR Très Intensif
Visi : 
Plafond : 
>= 8 km
>= 3000ft
5 à 8 km
1000 à 3000 ft
1500m à 5 km
500 à 1000 ft
800 à 1500m
200 à 500 ft
< 800m
< 200 ft
Symboles :   Orages  Brouillard  Fortes neiges  Fortes précipitations  Vent > 20 kt
SIGMETs :   Divers  Orages  Givrage  Turbulence  Onde Orograph.  Cendres Volcan.







- Altitude de l'aérodrome : 665 ft
- Code IATA : NOC


EIKN - Connaught / Knock- Ireland West

DERNIER METAR :
  • 231800Z 25008KT 9999 FEW024CB 02/M00 Q1002 NOSIG

METARs EXPIRÉS :
  • 231730Z 26007KT 9999 FEW024CB 02/00 Q1002 NOSIG
  • 231700Z 26005KT 9999 FEW023 FEW024CB 02/01 Q1001 NOSIG
  • 231630Z 25006KT 9999 FEW020 FEW024CB 02/01 Q1001 NOSIG
  • 231600Z 26008KT 220V310 9999 -SHRA FEW020 BKN024CB 04/01 Q1000 NOSIG
  • 231530Z 25006KT 9999 SCT027CB 04/01 Q0999 NOSIG

TAF TAF EIKN
Valide du 23 à 18h jusqu'au 24 à 18h UTC


231700Z 2318/2418 28005KT 9999 SCT010 BKN020
TEMPO 2318/2406 6000 -SHRA BKN010 SCT020CB
PROB30
TEMPO 2318/2406 4000 SHRAGS BKN006
BECMG 2321/2324 25006KT
TEMPO 2406/2418 3000 -SHRASN BKN004 SCT018CB
PROB30
TEMPO 2406/2418 1200 -SHSN BKN002
BECMG 2409/2412 29012KT
Pas de NOTAMs connus pour ce terrain.



MET'MAP, la Météo Aéronautique d'un coup d'oeil ! - Copyright ORBIFLY Décembre 2007 - Disclaimer

ORBIFLY MET'MAP TEAM :

Programmation & Développement : Alexandra Zaïnal
Conception & Développement : Baudouin d'Aumeries
Co-Programmation & Développement : Marc-Olivier Méhu
Soutien technique & logistique : Manuel Goepfert

Contact : metmap@orbifly.com




SOURCES & CREDITS :

   NOAA